createdAt,value
2018-08-03T00:00:07.214Z,66.37
2018-08-03T00:02:36.473Z,65.09
2018-08-03T00:05:05.508Z,66.46
2018-08-03T00:07:34.430Z,66.37
2018-08-03T00:10:03.625Z,66.74
2018-08-03T00:12:32.635Z,66.81
2018-08-03T00:15:01.696Z,67.73
2018-08-03T00:17:30.494Z,66.37
2018-08-03T00:19:59.292Z,67.00
2018-08-03T00:22:28.509Z,66.91
2018-08-03T00:24:57.662Z,67.30
2018-08-03T00:27:27.011Z,68.03
2018-08-03T00:29:56.258Z,68.90
2018-08-03T00:32:25.599Z,68.65
2018-08-03T00:34:54.558Z,69.37
2018-08-03T00:37:23.802Z,69.22
2018-08-03T00:39:53.376Z,70.15
2018-08-03T00:42:22.552Z,69.66
2018-08-03T00:44:51.703Z,69.91
2018-08-03T00:47:20.769Z,70.94
2018-08-03T00:49:49.802Z,69.61
2018-08-03T00:52:18.846Z,69.46
2018-08-03T00:54:47.975Z,69.38
2018-08-03T00:57:17.006Z,69.48
2018-08-03T00:59:45.989Z,69.10
2018-08-03T01:02:15.051Z,68.92
2018-08-03T01:04:44.202Z,69.65
2018-08-03T01:07:13.430Z,70.32
2018-08-03T01:09:42.342Z,71.29
2018-08-03T01:12:11.359Z,71.61
2018-08-03T01:14:40.661Z,72.03
2018-08-03T01:17:09.751Z,72.31
2018-08-03T01:19:38.673Z,72.14
2018-08-03T01:22:07.982Z,71.63
2018-08-03T01:24:36.843Z,72.81
2018-08-03T01:27:05.852Z,72.04
2018-08-03T01:29:34.762Z,73.36
2018-08-03T01:32:03.988Z,73.60
2018-08-03T01:34:33.118Z,74.31
2018-08-03T01:37:02.361Z,72.52
2018-08-03T01:39:31.603Z,72.82
2018-08-03T01:42:00.742Z,72.88
2018-08-03T01:44:29.599Z,73.73
2018-08-03T01:46:58.599Z,74.00
2018-08-03T01:49:27.821Z,74.53
2018-08-03T01:51:57.073Z,74.24
2018-08-03T01:54:26.239Z,74.32
2018-08-03T01:56:55.282Z,74.22
2018-08-03T01:59:24.356Z,72.24
2018-08-03T02:01:53.311Z,73.39
2018-08-03T02:04:22.586Z,73.97
2018-08-03T02:06:51.844Z,72.66
2018-08-03T02:09:20.992Z,72.82
2018-08-03T02:11:50.134Z,74.20
2018-08-03T02:14:19.282Z,74.25
2018-08-03T02:16:48.426Z,72.99
2018-08-03T02:19:17.689Z,73.53
2018-08-03T02:21:46.450Z,74.44
2018-08-03T02:24:15.382Z,73.85
2018-08-03T02:26:44.458Z,74.06
2018-08-03T02:29:13.602Z,74.08
2018-08-03T02:31:42.469Z,73.21
2018-08-03T02:34:11.689Z,72.55
2018-08-03T02:36:40.823Z,73.57
2018-08-03T02:39:11.410Z,74.18
2018-08-03T02:41:40.610Z,73.53
2018-08-03T02:44:10.311Z,74.01
2018-08-03T02:46:39.476Z,74.42
2018-08-03T02:49:08.530Z,73.94
2018-08-03T02:51:37.247Z,74.49
2018-08-03T02:54:06.231Z,74.41
2018-08-03T02:56:35.182Z,74.75
2018-08-03T02:59:04.341Z,75.52
2018-08-03T03:01:33.410Z,75.50
2018-08-03T03:04:02.575Z,75.27
2018-08-03T03:06:31.742Z,74.76
2018-08-03T03:09:00.984Z,74.47
2018-08-03T03:11:30.238Z,73.98
2018-08-03T03:13:59.381Z,73.99
2018-08-03T03:16:28.658Z,74.38
2018-08-03T03:18:57.750Z,73.26
2018-08-03T03:23:54.363Z,72.82
2018-08-03T03:26:23.375Z,72.25
2018-08-03T03:28:52.946Z,73.29
2018-08-03T03:31:22.140Z,72.90
2018-08-03T03:33:51.377Z,72.67
2018-08-03T03:36:20.525Z,73.35
2018-08-03T03:38:49.333Z,72.10
2018-08-03T03:41:18.343Z,70.87
2018-08-03T03:43:47.501Z,72.27
2018-08-03T03:46:16.390Z,73.10
2018-08-03T03:48:45.638Z,72.89
2018-08-03T03:51:14.854Z,72.84
2018-08-03T03:53:43.901Z,73.58
2018-08-03T03:56:13.260Z,72.72
2018-08-03T03:58:42.884Z,73.10
2018-08-03T04:01:11.815Z,73.27
2018-08-03T04:03:40.951Z,73.73
2018-08-03T04:06:10.028Z,73.52
2018-08-03T04:08:38.947Z,73.00
2018-08-03T04:11:08.028Z,72.28
2018-08-03T04:13:37.017Z,73.28
2018-08-03T04:16:06.387Z,72.71
2018-08-03T04:18:35.369Z,72.63
2018-08-03T04:21:04.271Z,71.82
2018-08-03T04:23:33.435Z,70.91
2018-08-03T04:26:02.354Z,71.34
2018-08-03T04:28:31.146Z,70.64
2018-08-03T04:31:00.400Z,69.79
2018-08-03T04:33:29.338Z,69.24
2018-08-03T04:35:58.666Z,69.29
2018-08-03T04:38:27.840Z,69.75
2018-08-03T04:40:56.786Z,68.73
2018-08-03T04:43:25.818Z,69.14
2018-08-03T04:45:54.971Z,69.84
2018-08-03T04:48:24.167Z,69.04
2018-08-03T04:50:53.082Z,68.80
2018-08-03T04:53:22.186Z,68.88
2018-08-03T04:55:51.313Z,68.61
2018-08-03T04:58:20.133Z,67.87
2018-08-03T05:00:49.028Z,67.06
2018-08-03T05:03:18.154Z,66.99
2018-08-03T05:05:47.186Z,66.48
2018-08-03T05:08:16.239Z,65.51
2018-08-03T05:10:45.686Z,65.12
2018-08-03T05:13:14.961Z,63.59
2018-08-03T05:15:43.945Z,63.65
2018-08-03T05:18:13.146Z,63.24
2018-08-03T05:20:42.257Z,63.54
2018-08-03T05:23:11.338Z,64.63
2018-08-03T05:25:40.315Z,64.43
2018-08-03T05:28:09.454Z,64.80
2018-08-03T05:30:38.270Z,63.90
2018-08-03T05:33:07.282Z,63.81
2018-08-03T05:35:36.473Z,64.09
2018-08-03T05:38:05.433Z,63.83
2018-08-03T05:40:34.733Z,63.54
2018-08-03T05:43:03.914Z,63.83
2018-08-03T05:45:33.262Z,63.25
2018-08-03T05:48:02.322Z,63.01
2018-08-03T05:50:31.126Z,62.44
2018-08-03T05:53:00.383Z,61.95
2018-08-03T05:55:29.677Z,62.87
2018-08-03T05:57:59.898Z,62.25
2018-08-03T06:00:29.006Z,62.04
2018-08-03T06:02:58.376Z,62.20
2018-08-03T06:05:27.553Z,62.50
2018-08-03T06:07:56.399Z,60.39
2018-08-03T06:10:25.431Z,60.44
2018-08-03T06:12:54.620Z,60.22
2018-08-03T06:15:23.389Z,60.34
2018-08-03T06:17:52.450Z,60.24
2018-08-03T06:20:21.310Z,60.97
2018-08-03T06:22:50.370Z,61.80
2018-08-03T06:25:19.198Z,62.10
2018-08-03T06:27:48.027Z,61.83
2018-08-03T06:30:16.986Z,62.61
2018-08-03T06:32:45.842Z,63.40
2018-08-03T06:35:15.039Z,62.69
2018-08-03T06:37:44.293Z,63.12
2018-08-03T06:40:13.238Z,62.68
2018-08-03T06:42:42.587Z,62.68
2018-08-03T06:45:11.883Z,63.30
2018-08-03T06:47:40.964Z,61.95
2018-08-03T06:50:10.279Z,60.64
2018-08-03T06:52:39.302Z,61.36
2018-08-03T06:55:08.678Z,61.13
2018-08-03T06:57:37.667Z,61.67
2018-08-03T07:00:07.547Z,62.14
2018-08-03T07:02:36.471Z,60.71
2018-08-03T07:05:05.670Z,60.75
2018-08-03T07:07:34.783Z,60.60
2018-08-03T07:10:03.854Z,61.32
2018-08-03T07:12:32.712Z,60.30
2018-08-03T07:15:02.092Z,60.24
2018-08-03T07:17:31.043Z,60.38
2018-08-03T07:20:00.290Z,58.61
2018-08-03T07:22:29.131Z,58.28
2018-08-03T07:24:57.940Z,57.37
2018-08-03T07:27:26.759Z,57.86
2018-08-03T07:29:55.594Z,57.97
2018-08-03T07:32:24.673Z,59.91
2018-08-03T07:34:53.917Z,60.16
2018-08-03T07:37:22.696Z,61.42
2018-08-03T07:39:51.726Z,61.31
2018-08-03T07:42:20.783Z,59.98
2018-08-03T07:44:49.912Z,58.95
2018-08-03T07:47:19.082Z,60.34
2018-08-03T07:49:48.342Z,59.72
2018-08-03T07:52:17.223Z,59.84
2018-08-03T07:54:46.270Z,58.86
2018-08-03T07:57:15.472Z,57.68
2018-08-03T07:59:44.602Z,58.36
2018-08-03T08:02:13.868Z,58.45
2018-08-03T08:04:43.203Z,58.06
2018-08-03T08:07:11.955Z,56.61
2018-08-03T08:09:41.343Z,57.97
2018-08-03T08:12:10.291Z,57.24
2018-08-03T08:14:39.418Z,56.53
2018-08-03T08:17:08.583Z,53.14
2018-08-03T08:19:37.626Z,52.95
2018-08-03T08:22:06.848Z,54.86
2018-08-03T08:24:36.011Z,56.12
2018-08-03T08:27:06.035Z,55.00
2018-08-03T08:29:35.180Z,54.91
2018-08-03T08:32:04.318Z,53.45
2018-08-03T08:34:33.454Z,54.27
2018-08-03T08:37:02.608Z,52.13
2018-08-03T08:39:31.805Z,51.84
2018-08-03T08:42:01.047Z,52.87
2018-08-03T08:44:29.989Z,52.17
2018-08-03T08:46:59.028Z,50.84
2018-08-03T08:49:28.030Z,52.50
2018-08-03T08:51:57.066Z,50.14
2018-08-03T08:54:26.156Z,49.81
2018-08-03T08:56:55.359Z,50.86
2018-08-03T08:59:24.543Z,49.71
2018-08-03T09:01:53.659Z,48.25
2018-08-03T09:04:22.841Z,48.76
2018-08-03T09:06:52.143Z,47.07
2018-08-03T09:09:21.229Z,44.76
2018-08-03T09:11:50.237Z,44.14
2018-08-03T09:14:19.425Z,41.31
2018-08-03T09:16:48.318Z,40.41
2018-08-03T09:19:18.439Z,37.94
2018-08-03T09:21:47.737Z,35.92
2018-08-03T09:24:16.968Z,33.61
2018-08-03T09:26:45.720Z,31.71
2018-08-03T09:29:14.910Z,29.37
2018-08-03T09:31:43.942Z,26.08
2018-08-03T09:34:13.275Z,25.32
2018-08-03T09:36:42.312Z,25.32
2018-08-03T09:39:11.775Z,23.26
2018-08-03T09:41:41.015Z,22.31
2018-08-03T09:44:10.249Z,21.03
2018-08-03T09:46:39.203Z,21.83
2018-08-03T09:49:08.858Z,21.54
2018-08-03T09:51:37.924Z,19.84
2018-08-03T09:54:07.046Z,19.68
2018-08-03T09:56:36.170Z,19.07
2018-08-03T09:59:05.482Z,18.64
2018-08-03T10:01:34.702Z,18.13
2018-08-03T10:04:03.673Z,16.35
2018-08-03T10:06:32.815Z,15.92
2018-08-03T10:09:02.067Z,17.27
2018-08-03T10:11:31.116Z,17.52
2018-08-03T10:14:00.250Z,16.99
2018-08-03T10:16:29.494Z,16.73
2018-08-03T10:18:58.649Z,16.44
2018-08-03T10:21:27.790Z,16.12
2018-08-03T10:23:57.094Z,14.92
2018-08-03T10:26:26.174Z,14.75
2018-08-03T10:28:55.303Z,15.61
2018-08-03T10:31:24.569Z,15.65
2018-08-03T10:33:54.117Z,15.18
2018-08-03T10:36:23.370Z,14.87
2018-08-03T10:38:52.725Z,15.02
2018-08-03T10:41:21.564Z,14.12
2018-08-03T10:43:50.506Z,14.40
2018-08-03T10:46:19.671Z,13.35
2018-08-03T10:48:48.668Z,13.89
2018-08-03T10:51:17.717Z,13.86
2018-08-03T10:53:47.008Z,15.55
2018-08-03T10:56:16.605Z,14.55
2018-08-03T10:58:45.558Z,15.28
2018-08-03T11:01:14.713Z,15.75
2018-08-03T11:03:43.694Z,16.63
2018-08-03T11:06:13.074Z,15.88
2018-08-03T11:08:41.883Z,14.18
2018-08-03T11:11:10.956Z,14.72
2018-08-03T11:13:40.205Z,13.79
2018-08-03T11:16:09.354Z,13.62
2018-08-03T11:18:38.433Z,13.42
2018-08-03T11:21:07.330Z,14.01
2018-08-03T11:23:36.554Z,13.89
2018-08-03T11:26:05.383Z,13.21
2018-08-03T11:28:34.505Z,13.10
2018-08-03T11:31:03.779Z,13.17
2018-08-03T11:33:33.012Z,13.76
2018-08-03T11:36:01.794Z,13.07
2018-08-03T11:38:30.711Z,13.54
2018-08-03T11:40:59.926Z,13.98
2018-08-03T11:43:29.376Z,12.94
2018-08-03T11:45:58.615Z,12.80
2018-08-03T11:48:27.565Z,13.35
2018-08-03T11:50:56.548Z,13.69
2018-08-03T11:53:25.511Z,13.63
2018-08-03T11:55:54.794Z,13.26
2018-08-03T11:58:23.716Z,14.03
2018-08-03T12:00:52.914Z,13.35
2018-08-03T12:03:22.047Z,13.93
2018-08-03T12:05:51.395Z,13.82
2018-08-03T12:08:20.648Z,14.61
2018-08-03T12:10:49.513Z,13.78
2018-08-03T12:13:18.770Z,13.68
2018-08-03T12:15:47.592Z,13.32
2018-08-03T12:18:16.849Z,13.80
2018-08-03T12:20:46.984Z,12.73
2018-08-03T12:23:15.966Z,12.84
2018-08-03T12:25:45.095Z,12.21
2018-08-03T12:28:14.306Z,12.87
2018-08-03T12:30:43.643Z,12.02
2018-08-03T12:33:12.916Z,11.95
2018-08-03T12:35:42.152Z,12.68
2018-08-03T12:38:10.840Z,14.56
2018-08-03T12:40:39.903Z,15.37
2018-08-03T12:43:09.036Z,17.14
2018-08-03T12:45:38.171Z,15.75
2018-08-03T12:48:07.027Z,14.66
2018-08-03T12:50:36.144Z,14.56
2018-08-03T12:53:05.143Z,15.89
2018-08-03T12:55:34.046Z,15.62
2018-08-03T12:58:02.995Z,14.95
2018-08-03T13:00:32.020Z,13.90
2018-08-03T13:03:01.267Z,14.91
2018-08-03T13:05:30.255Z,14.77
2018-08-03T13:07:59.418Z,13.83
2018-08-03T13:10:28.088Z,14.15
2018-08-03T13:12:57.438Z,13.17
2018-08-03T13:15:26.486Z,15.18
2018-08-03T13:17:55.439Z,15.23
2018-08-03T13:20:24.630Z,15.34
2018-08-03T13:22:59.589Z,15.68
2018-08-03T13:25:28.642Z,15.63
2018-08-03T13:27:57.766Z,16.30
2018-08-03T13:30:26.739Z,17.71
2018-08-03T13:32:55.660Z,16.74
2018-08-03T13:35:24.837Z,17.42
2018-08-03T13:37:54.016Z,19.91
2018-08-03T13:40:23.064Z,21.90
2018-08-03T13:42:51.940Z,22.48
2018-08-03T13:45:20.901Z,24.00
2018-08-03T13:47:50.020Z,26.83
2018-08-03T13:50:19.069Z,26.23
2018-08-03T13:52:47.918Z,27.53
2018-08-03T13:55:16.971Z,26.45
2018-08-03T13:57:46.160Z,25.85
2018-08-03T14:00:15.302Z,25.47
2018-08-03T14:02:44.806Z,24.91
2018-08-03T14:05:13.802Z,24.23
2018-08-03T14:07:43.085Z,25.41
2018-08-03T14:10:12.148Z,26.51
2018-08-03T14:12:41.271Z,27.14
2018-08-03T14:15:10.464Z,27.84
2018-08-03T14:17:39.682Z,29.31
2018-08-03T14:20:08.922Z,34.01
2018-08-03T14:22:38.044Z,32.45
2018-08-03T14:25:07.056Z,33.54
2018-08-03T14:27:36.280Z,33.80
2018-08-03T14:30:05.881Z,36.05
2018-08-03T14:32:34.819Z,36.47
2018-08-03T14:35:04.024Z,35.56
2018-08-03T14:37:33.314Z,34.13
2018-08-03T14:40:02.328Z,34.00
2018-08-03T14:42:31.132Z,33.74
2018-08-03T14:45:00.020Z,34.90
2018-08-03T14:47:29.259Z,36.80
2018-08-03T14:49:58.554Z,33.39
2018-08-03T14:52:27.822Z,32.42
2018-08-03T14:54:56.854Z,31.58
2018-08-03T14:57:25.946Z,35.37
2018-08-03T14:59:54.889Z,34.08
2018-08-03T15:02:23.939Z,33.79
2018-08-03T15:04:52.990Z,36.97
2018-08-03T15:07:22.074Z,33.62
2018-08-03T15:09:51.404Z,35.34
2018-08-03T15:12:20.482Z,34.32
2018-08-03T15:14:49.449Z,34.80
2018-08-03T15:17:18.252Z,34.01
2018-08-03T15:19:47.501Z,34.49
2018-08-03T15:22:16.728Z,34.40
2018-08-03T15:24:45.753Z,35.20
2018-08-03T15:27:14.730Z,35.57
2018-08-03T15:29:43.559Z,36.30
2018-08-03T15:32:12.335Z,37.37
2018-08-03T15:34:41.533Z,37.51
2018-08-03T15:37:10.627Z,36.60
2018-08-03T15:39:39.934Z,34.30
2018-08-03T15:42:09.078Z,34.84
2018-08-03T15:44:38.321Z,36.85
2018-08-03T15:47:07.104Z,36.31
2018-08-03T15:49:36.307Z,36.30
2018-08-03T15:52:05.518Z,38.43
2018-08-03T15:54:34.766Z,33.19
2018-08-03T15:57:04.119Z,35.38
2018-08-03T15:59:32.912Z,34.58
2018-08-03T16:02:02.155Z,36.99
2018-08-03T16:04:31.322Z,39.29
2018-08-03T16:07:00.438Z,38.43
2018-08-03T16:09:29.520Z,38.19
2018-08-03T16:11:58.615Z,39.88
2018-08-03T16:14:27.909Z,38.65
2018-08-03T16:16:56.977Z,39.90
2018-08-03T16:19:25.846Z,39.65
2018-08-03T16:21:54.734Z,40.44
2018-08-03T16:24:23.810Z,40.30
2018-08-03T16:26:52.943Z,40.68
2018-08-03T16:29:22.031Z,40.57
2018-08-03T16:31:50.970Z,40.54
2018-08-03T16:34:19.839Z,40.39
2018-08-03T16:36:48.691Z,40.51
2018-08-03T16:39:17.965Z,40.38
2018-08-03T16:41:47.205Z,40.21
2018-08-03T16:44:16.240Z,41.86
2018-08-03T16:46:45.566Z,42.70
2018-08-03T16:49:14.531Z,43.71
2018-08-03T16:51:43.762Z,43.81
2018-08-03T16:54:12.753Z,44.66
2018-08-03T16:56:41.902Z,44.15
2018-08-03T16:59:11.050Z,43.48
2018-08-03T17:01:40.151Z,45.25
2018-08-03T17:04:08.883Z,44.75
2018-08-03T17:06:38.073Z,43.93
2018-08-03T17:09:09.422Z,45.01
2018-08-03T17:11:38.426Z,44.37
2018-08-03T17:14:07.759Z,45.70
2018-08-03T17:16:36.887Z,45.48
2018-08-03T17:19:05.852Z,46.72
2018-08-03T17:21:35.150Z,46.28
2018-08-03T17:24:04.035Z,47.76
2018-08-03T17:26:33.025Z,47.79
2018-08-03T17:29:01.876Z,47.16
2018-08-03T17:31:31.060Z,48.56
2018-08-03T17:34:00.003Z,48.72
2018-08-03T17:36:29.168Z,48.90
2018-08-03T17:38:58.056Z,49.44
2018-08-03T17:41:26.956Z,49.09
2018-08-03T17:43:55.810Z,49.30
2018-08-03T17:46:24.758Z,49.07
2018-08-03T17:48:54.467Z,49.43
2018-08-03T17:51:23.726Z,49.70
2018-08-03T17:53:52.958Z,49.75
2018-08-03T17:56:22.224Z,49.22
2018-08-03T17:58:51.039Z,49.60
2018-08-03T18:01:20.323Z,49.62
2018-08-03T18:03:49.343Z,50.35
2018-08-03T18:06:18.494Z,50.03
2018-08-03T18:08:47.730Z,49.96
2018-08-03T18:11:16.816Z,49.10
2018-08-03T18:13:46.010Z,49.62
2018-08-03T18:16:14.767Z,49.72
2018-08-03T18:18:43.914Z,49.77
2018-08-03T18:21:13.024Z,49.37
2018-08-03T18:23:42.304Z,48.77
2018-08-03T18:26:11.581Z,49.67
2018-08-03T18:28:40.754Z,50.23
2018-08-03T18:31:09.998Z,49.53
2018-08-03T18:33:39.255Z,48.03
2018-08-03T18:36:08.232Z,48.74
2018-08-03T18:38:37.239Z,49.41
2018-08-03T18:41:06.462Z,49.93
2018-08-03T18:43:35.895Z,49.16
2018-08-03T18:46:04.824Z,49.82
2018-08-03T18:48:34.014Z,49.16
2018-08-03T18:51:03.263Z,49.15
2018-08-03T18:53:32.094Z,50.53
2018-08-03T18:56:01.280Z,50.28
2018-08-03T18:58:30.478Z,50.18
2018-08-03T19:00:59.594Z,49.38
2018-08-03T19:03:28.898Z,49.23
2018-08-03T19:05:58.126Z,50.37
2018-08-03T19:08:27.183Z,48.39
2018-08-03T19:10:56.372Z,48.46
2018-08-03T19:13:25.432Z,48.48
2018-08-03T19:15:54.574Z,48.39
2018-08-03T19:18:23.802Z,47.82
2018-08-03T19:20:53.059Z,47.65
2018-08-03T19:23:22.408Z,47.59
2018-08-03T19:25:51.239Z,46.17
2018-08-03T19:28:20.423Z,46.51
2018-08-03T19:30:49.320Z,45.56
2018-08-03T19:33:18.334Z,46.50
2018-08-03T19:35:47.538Z,46.84
2018-08-03T19:38:16.837Z,45.00
2018-08-03T19:40:45.655Z,46.35
2018-08-03T19:43:14.927Z,46.41
2018-08-03T19:45:43.961Z,46.60
2018-08-03T19:48:13.225Z,46.46
2018-08-03T19:50:42.575Z,46.78
2018-08-03T19:53:11.461Z,46.83
2018-08-03T19:55:40.579Z,46.19
2018-08-03T19:58:09.620Z,45.63
2018-08-03T20:00:38.762Z,45.90
2018-08-03T20:03:08.059Z,44.46
2018-08-03T20:05:37.453Z,43.96
2018-08-03T20:08:06.994Z,43.55
2018-08-03T20:10:36.175Z,43.49
2018-08-03T20:13:05.319Z,43.44
2018-08-03T20:15:34.224Z,44.19
2018-08-03T20:18:03.475Z,43.96
2018-08-03T20:20:32.867Z,44.36
2018-08-03T20:23:02.180Z,43.95
2018-08-03T20:25:31.406Z,44.68
2018-08-03T20:28:00.336Z,44.73
2018-08-03T20:30:29.323Z,45.06
2018-08-03T20:32:58.459Z,44.78
2018-08-03T20:35:27.770Z,44.86
2018-08-03T20:37:56.771Z,45.65
2018-08-03T20:40:25.971Z,45.46
2018-08-03T20:42:55.266Z,45.07
2018-08-03T20:45:24.081Z,44.73
2018-08-03T20:47:52.895Z,44.68
2018-08-03T20:50:22.223Z,45.46
2018-08-03T20:52:51.474Z,45.23
2018-08-03T20:55:20.687Z,45.65
2018-08-03T20:57:49.756Z,45.61
2018-08-03T21:00:18.514Z,44.34
2018-08-03T21:02:47.456Z,45.14
2018-08-03T21:05:16.506Z,44.93
2018-08-03T21:07:45.587Z,45.70
2018-08-03T21:10:14.858Z,45.57
2018-08-03T21:12:44.032Z,45.54
2018-08-03T21:15:13.359Z,44.96
2018-08-03T21:17:42.246Z,44.91
2018-08-03T21:20:11.292Z,43.65
2018-08-03T21:22:40.492Z,44.40
2018-08-03T21:25:09.647Z,44.92
2018-08-03T21:27:38.801Z,44.30
2018-08-03T21:30:09.453Z,45.31
2018-08-03T21:32:38.484Z,45.26
2018-08-03T21:35:07.807Z,45.35
2018-08-03T21:37:36.703Z,45.89
2018-08-03T21:40:06.351Z,44.92
2018-08-03T21:42:35.758Z,47.61
2018-08-03T21:45:05.287Z,47.63
2018-08-03T21:47:34.447Z,47.37
2018-08-03T21:50:03.618Z,47.44
2018-08-03T21:52:32.914Z,47.65
2018-08-03T21:55:01.763Z,49.03
2018-08-03T21:57:30.881Z,49.13
2018-08-03T21:59:59.885Z,49.63
2018-08-03T22:02:28.935Z,50.49
2018-08-03T22:04:57.987Z,49.68
2018-08-03T22:07:26.726Z,50.57
2018-08-03T22:09:56.223Z,50.68
2018-08-03T22:12:25.483Z,50.93
2018-08-03T22:14:54.639Z,51.47
2018-08-03T22:17:24.045Z,52.52
2018-08-03T22:19:53.031Z,52.64
2018-08-03T22:22:22.121Z,52.17
2018-08-03T22:24:51.230Z,53.59
2018-08-03T22:27:20.273Z,52.56
2018-08-03T22:29:49.552Z,52.96
2018-08-03T22:32:18.492Z,53.68
2018-08-03T22:34:47.510Z,53.30
2018-08-03T22:37:16.602Z,54.29
2018-08-03T22:39:45.707Z,54.31
2018-08-03T22:42:15.050Z,54.72
2018-08-03T22:44:44.129Z,56.19
2018-08-03T22:47:13.175Z,57.08
2018-08-03T22:49:42.241Z,59.16
2018-08-03T22:52:11.361Z,59.71
2018-08-03T22:54:40.399Z,60.18
2018-08-03T22:57:09.361Z,61.36
2018-08-03T22:59:38.502Z,60.84
2018-08-03T23:02:08.459Z,61.43
2018-08-03T23:04:38.730Z,61.57
2018-08-03T23:07:08.193Z,61.84
2018-08-03T23:09:37.281Z,61.78
2018-08-03T23:12:10.407Z,61.63
2018-08-03T23:14:39.613Z,61.59
2018-08-03T23:17:08.634Z,61.91
2018-08-03T23:19:37.812Z,62.03
2018-08-03T23:22:07.062Z,62.03
2018-08-03T23:24:36.362Z,62.35
2018-08-03T23:27:05.482Z,61.33
2018-08-03T23:29:34.496Z,60.89
2018-08-03T23:32:03.677Z,60.94
2018-08-03T23:34:32.730Z,60.67
2018-08-03T23:37:02.095Z,61.35
2018-08-03T23:39:31.233Z,61.52
2018-08-03T23:42:00.363Z,61.69
2018-08-03T23:44:29.518Z,61.91
2018-08-03T23:46:58.639Z,62.05
2018-08-03T23:49:27.651Z,62.09
2018-08-03T23:51:56.950Z,61.65
2018-08-03T23:54:26.098Z,61.97
2018-08-03T23:56:55.358Z,61.50
2018-08-03T23:59:24.042Z,62.14
